sensor_id;sensor_type;location;lat;lon;timestamp;P1;durP1;ratioP1;P2;durP2;ratioP2
36291;SDS011;22327;51.208;6.418;2023-10-08T00:00:11;7.35;;;4.00;;
36291;SDS011;22327;51.208;6.418;2023-10-08T00:03:30;6.32;;;3.10;;
36291;SDS011;22327;51.208;6.418;2023-10-08T00:06:33;5.45;;;3.35;;
36291;SDS011;22327;51.208;6.418;2023-10-08T00:09:33;5.95;;;3.03;;
36291;SDS011;22327;51.208;6.418;2023-10-08T00:15:38;7.20;;;3.40;;
36291;SDS011;22327;51.208;6.418;2023-10-08T00:18:49;3.90;;;2.20;;
36291;SDS011;22327;51.208;6.418;2023-10-08T00:21:51;6.85;;;3.30;;
36291;SDS011;22327;51.208;6.418;2023-10-08T00:24:53;4.93;;;2.72;;
36291;SDS011;22327;51.208;6.418;2023-10-08T00:27:58;5.82;;;2.90;;
36291;SDS011;22327;51.208;6.418;2023-10-08T00:30:58;12.05;;;6.40;;
36291;SDS011;22327;51.208;6.418;2023-10-08T00:34:12;4.10;;;3.00;;
36291;SDS011;22327;51.208;6.418;2023-10-08T00:37:13;5.72;;;3.08;;
36291;SDS011;22327;51.208;6.418;2023-10-08T00:40:14;5.43;;;2.63;;
36291;SDS011;22327;51.208;6.418;2023-10-08T00:43:30;5.10;;;2.60;;
36291;SDS011;22327;51.208;6.418;2023-10-08T00:46:37;5.10;;;2.85;;
36291;SDS011;22327;51.208;6.418;2023-10-08T00:49:42;4.95;;;2.85;;
36291;SDS011;22327;51.208;6.418;2023-10-08T00:52:43;4.97;;;2.20;;
36291;SDS011;22327;51.208;6.418;2023-10-08T00:55:59;4.43;;;2.65;;
36291;SDS011;22327;51.208;6.418;2023-10-08T00:59:04;5.38;;;3.08;;
36291;SDS011;22327;51.208;6.418;2023-10-08T01:02:06;7.35;;;3.10;;
36291;SDS011;22327;51.208;6.418;2023-10-08T01:05:09;6.72;;;3.47;;
36291;SDS011;22327;51.208;6.418;2023-10-08T01:08:12;6.25;;;2.58;;
36291;SDS011;22327;51.208;6.418;2023-10-08T01:11:21;8.38;;;3.38;;
36291;SDS011;22327;51.208;6.418;2023-10-08T01:14:31;6.88;;;3.22;;
36291;SDS011;22327;51.208;6.418;2023-10-08T01:17:32;5.22;;;2.85;;
36291;SDS011;22327;51.208;6.418;2023-10-08T01:20:45;6.05;;;2.80;;
36291;SDS011;22327;51.208;6.418;2023-10-08T01:23:46;5.10;;;3.22;;
36291;SDS011;22327;51.208;6.418;2023-10-08T01:26:47;4.40;;;2.72;;
36291;SDS011;22327;51.208;6.418;2023-10-08T01:29:48;4.90;;;3.28;;
36291;SDS011;22327;51.208;6.418;2023-10-08T01:32:50;4.85;;;2.67;;
36291;SDS011;22327;51.208;6.418;2023-10-08T01:35:50;8.65;;;3.35;;
36291;SDS011;22327;51.208;6.418;2023-10-08T01:38:51;6.63;;;2.72;;
36291;SDS011;22327;51.208;6.418;2023-10-08T01:41:54;5.93;;;3.08;;
36291;SDS011;22327;51.208;6.418;2023-10-08T01:44:54;5.15;;;3.45;;
36291;SDS011;22327;51.208;6.418;2023-10-08T01:47:55;3.38;;;2.33;;
36291;SDS011;22327;51.208;6.418;2023-10-08T01:50:57;6.30;;;3.05;;
36291;SDS011;22327;51.208;6.418;2023-10-08T01:54:04;5.55;;;2.85;;
36291;SDS011;22327;51.208;6.418;2023-10-08T01:57:10;4.82;;;2.83;;
36291;SDS011;22327;51.208;6.418;2023-10-08T02:00:12;9.43;;;5.55;;
36291;SDS011;22327;51.208;6.418;2023-10-08T02:03:19;4.57;;;2.85;;
36291;SDS011;22327;51.208;6.418;2023-10-08T02:06:22;3.90;;;2.75;;
36291;SDS011;22327;51.208;6.418;2023-10-08T02:09:23;5.55;;;2.60;;
36291;SDS011;22327;51.208;6.418;2023-10-08T02:12:26;6.15;;;2.65;;
36291;SDS011;22327;51.208;6.418;2023-10-08T02:15:27;6.18;;;3.50;;
36291;SDS011;22327;51.208;6.418;2023-10-08T02:18:27;4.85;;;3.00;;
36291;SDS011;22327;51.208;6.418;2023-10-08T02:21:30;6.93;;;2.85;;
36291;SDS011;22327;51.208;6.418;2023-10-08T02:24:31;6.53;;;3.42;;
36291;SDS011;22327;51.208;6.418;2023-10-08T02:27:32;5.50;;;3.13;;
36291;SDS011;22327;51.208;6.418;2023-10-08T02:30:33;4.63;;;2.58;;
36291;SDS011;22327;51.208;6.418;2023-10-08T02:33:34;5.18;;;3.17;;
36291;SDS011;22327;51.208;6.418;2023-10-08T02:36:37;5.38;;;2.60;;
36291;SDS011;22327;51.208;6.418;2023-10-08T02:39:40;6.35;;;3.03;;
36291;SDS011;22327;51.208;6.418;2023-10-08T02:42:41;6.50;;;2.95;;
36291;SDS011;22327;51.208;6.418;2023-10-08T02:45:41;6.25;;;2.88;;
36291;SDS011;22327;51.208;6.418;2023-10-08T02:48:47;5.53;;;2.75;;
36291;SDS011;22327;51.208;6.418;2023-10-08T02:51:48;5.38;;;2.88;;
36291;SDS011;22327;51.208;6.418;2023-10-08T02:54:51;4.00;;;3.20;;
36291;SDS011;22327;51.208;6.418;2023-10-08T02:57:53;5.82;;;3.05;;
36291;SDS011;22327;51.208;6.418;2023-10-08T03:00:56;4.30;;;2.40;;
36291;SDS011;22327;51.208;6.418;2023-10-08T03:03:56;5.38;;;3.08;;
36291;SDS011;22327;51.208;6.418;2023-10-08T03:07:04;4.43;;;2.53;;
36291;SDS011;22327;51.208;6.418;2023-10-08T03:10:11;5.80;;;3.10;;
36291;SDS011;22327;51.208;6.418;2023-10-08T03:13:18;5.55;;;2.90;;
36291;SDS011;22327;51.208;6.418;2023-10-08T03:16:19;6.47;;;2.92;;
36291;SDS011;22327;51.208;6.418;2023-10-08T03:19:27;5.65;;;2.80;;
36291;SDS011;22327;51.208;6.418;2023-10-08T03:22:28;6.55;;;3.05;;
36291;SDS011;22327;51.208;6.418;2023-10-08T03:25:34;5.38;;;3.17;;
36291;SDS011;22327;51.208;6.418;2023-10-08T03:28:41;4.32;;;2.72;;
36291;SDS011;22327;51.208;6.418;2023-10-08T03:31:42;4.43;;;2.42;;
36291;SDS011;22327;51.208;6.418;2023-10-08T03:34:49;5.05;;;2.72;;
36291;SDS011;22327;51.208;6.418;2023-10-08T03:37:50;4.47;;;2.50;;
36291;SDS011;22327;51.208;6.418;2023-10-08T03:40:50;7.90;;;2.65;;
36291;SDS011;22327;51.208;6.418;2023-10-08T03:44:03;5.80;;;2.75;;
36291;SDS011;22327;51.208;6.418;2023-10-08T03:47:13;5.97;;;2.53;;
36291;SDS011;22327;51.208;6.418;2023-10-08T03:50:14;6.50;;;2.95;;
36291;SDS011;22327;51.208;6.418;2023-10-08T03:53:17;5.53;;;2.88;;
36291;SDS011;22327;51.208;6.418;2023-10-08T03:56:18;5.60;;;2.72;;
36291;SDS011;22327;51.208;6.418;2023-10-08T03:59:19;4.60;;;2.60;;
36291;SDS011;22327;51.208;6.418;2023-10-08T04:05:41;4.50;;;2.30;;
36291;SDS011;22327;51.208;6.418;2023-10-08T04:08:59;7.22;;;2.70;;
36291;SDS011;22327;51.208;6.418;2023-10-08T04:12:09;9.82;;;3.10;;
36291;SDS011;22327;51.208;6.418;2023-10-08T04:15:18;5.82;;;2.85;;
36291;SDS011;22327;51.208;6.418;2023-10-08T04:18:19;6.88;;;2.80;;
36291;SDS011;22327;51.208;6.418;2023-10-08T04:21:20;6.63;;;2.85;;
36291;SDS011;22327;51.208;6.418;2023-10-08T04:24:26;6.05;;;2.97;;
36291;SDS011;22327;51.208;6.418;2023-10-08T04:27:35;6.90;;;3.25;;
36291;SDS011;22327;51.208;6.418;2023-10-08T04:30:36;6.25;;;3.00;;
36291;SDS011;22327;51.208;6.418;2023-10-08T04:33:36;5.45;;;2.85;;
36291;SDS011;22327;51.208;6.418;2023-10-08T04:36:38;8.77;;;3.05;;
36291;SDS011;22327;51.208;6.418;2023-10-08T04:39:39;5.97;;;3.00;;
36291;SDS011;22327;51.208;6.418;2023-10-08T04:42:46;6.25;;;2.80;;
36291;SDS011;22327;51.208;6.418;2023-10-08T04:45:48;4.68;;;3.00;;
36291;SDS011;22327;51.208;6.418;2023-10-08T04:48:49;5.25;;;3.05;;
36291;SDS011;22327;51.208;6.418;2023-10-08T04:51:50;4.43;;;2.42;;
36291;SDS011;22327;51.208;6.418;2023-10-08T04:54:52;5.03;;;2.70;;
36291;SDS011;22327;51.208;6.418;2023-10-08T04:57:57;7.53;;;3.15;;
36291;SDS011;22327;51.208;6.418;2023-10-08T05:00:58;4.80;;;2.70;;
36291;SDS011;22327;51.208;6.418;2023-10-08T05:03:59;5.43;;;2.92;;
36291;SDS011;22327;51.208;6.418;2023-10-08T05:07:00;4.72;;;2.70;;
36291;SDS011;22327;51.208;6.418;2023-10-08T05:10:19;6.30;;;2.53;;
36291;SDS011;22327;51.208;6.418;2023-10-08T05:13:19;5.20;;;2.70;;
36291;SDS011;22327;51.208;6.418;2023-10-08T05:16:30;7.50;;;2.95;;
36291;SDS011;22327;51.208;6.418;2023-10-08T05:19:44;6.07;;;2.70;;
36291;SDS011;22327;51.208;6.418;2023-10-08T05:22:48;7.50;;;2.85;;
36291;SDS011;22327;51.208;6.418;2023-10-08T05:25:56;5.68;;;2.42;;
36291;SDS011;22327;51.208;6.418;2023-10-08T05:28:58;7.72;;;3.38;;
36291;SDS011;22327;51.208;6.418;2023-10-08T05:32:03;6.40;;;3.17;;
36291;SDS011;22327;51.208;6.418;2023-10-08T05:35:22;7.07;;;2.90;;
36291;SDS011;22327;51.208;6.418;2023-10-08T05:38:41;5.22;;;2.60;;
36291;SDS011;22327;51.208;6.418;2023-10-08T05:41:49;4.97;;;2.90;;
36291;SDS011;22327;51.208;6.418;2023-10-08T05:45:05;3.63;;;2.47;;
36291;SDS011;22327;51.208;6.418;2023-10-08T05:48:08;5.03;;;3.03;;
36291;SDS011;22327;51.208;6.418;2023-10-08T05:51:15;7.28;;;3.00;;
36291;SDS011;22327;51.208;6.418;2023-10-08T05:54:33;4.10;;;2.83;;
36291;SDS011;22327;51.208;6.418;2023-10-08T05:57:47;5.57;;;2.97;;
36291;SDS011;22327;51.208;6.418;2023-10-08T06:00:52;6.68;;;3.30;;
36291;SDS011;22327;51.208;6.418;2023-10-08T06:04:22;8.13;;;3.03;;
36291;SDS011;22327;51.208;6.418;2023-10-08T06:07:52;5.90;;;2.92;;
36291;SDS011;22327;51.208;6.418;2023-10-08T06:10:53;5.95;;;3.15;;
36291;SDS011;22327;51.208;6.418;2023-10-08T06:13:57;6.43;;;3.22;;
36291;SDS011;22327;51.208;6.418;2023-10-08T06:17:00;6.65;;;2.80;;
36291;SDS011;22327;51.208;6.418;2023-10-08T06:20:23;4.25;;;2.88;;
36291;SDS011;22327;51.208;6.418;2023-10-08T06:23:26;6.10;;;2.95;;
36291;SDS011;22327;51.208;6.418;2023-10-08T06:26:28;6.40;;;3.00;;
36291;SDS011;22327;51.208;6.418;2023-10-08T06:29:34;6.72;;;2.75;;
36291;SDS011;22327;51.208;6.418;2023-10-08T06:32:34;8.43;;;3.15;;
36291;SDS011;22327;51.208;6.418;2023-10-08T06:35:37;8.73;;;3.08;;
36291;SDS011;22327;51.208;6.418;2023-10-08T06:38:38;8.82;;;3.53;;
36291;SDS011;22327;51.208;6.418;2023-10-08T06:41:39;6.43;;;2.72;;
36291;SDS011;22327;51.208;6.418;2023-10-08T06:44:42;7.43;;;3.00;;
36291;SDS011;22327;51.208;6.418;2023-10-08T06:47:46;6.30;;;2.85;;
36291;SDS011;22327;51.208;6.418;2023-10-08T06:50:49;8.23;;;2.80;;
36291;SDS011;22327;51.208;6.418;2023-10-08T06:53:50;5.00;;;2.80;;
36291;SDS011;22327;51.208;6.418;2023-10-08T06:56:51;5.03;;;3.30;;
36291;SDS011;22327;51.208;6.418;2023-10-08T06:59:52;8.65;;;3.60;;
36291;SDS011;22327;51.208;6.418;2023-10-08T07:02:52;6.50;;;3.10;;
36291;SDS011;22327;51.208;6.418;2023-10-08T07:05:54;6.68;;;3.30;;
36291;SDS011;22327;51.208;6.418;2023-10-08T07:08:58;5.45;;;3.03;;
36291;SDS011;22327;51.208;6.418;2023-10-08T07:12:06;7.15;;;3.50;;
36291;SDS011;22327;51.208;6.418;2023-10-08T07:15:13;8.15;;;3.17;;
36291;SDS011;22327;51.208;6.418;2023-10-08T07:18:14;4.95;;;3.00;;
36291;SDS011;22327;51.208;6.418;2023-10-08T07:21:19;6.43;;;2.75;;
36291;SDS011;22327;51.208;6.418;2023-10-08T07:24:28;4.07;;;2.60;;
36291;SDS011;22327;51.208;6.418;2023-10-08T07:27:30;4.63;;;3.20;;
36291;SDS011;22327;51.208;6.418;2023-10-08T07:30:36;5.88;;;3.40;;
36291;SDS011;22327;51.208;6.418;2023-10-08T07:33:43;9.10;;;2.80;;
36291;SDS011;22327;51.208;6.418;2023-10-08T07:36:46;4.53;;;2.90;;
36291;SDS011;22327;51.208;6.418;2023-10-08T07:39:49;7.03;;;2.90;;
36291;SDS011;22327;51.208;6.418;2023-10-08T07:42:51;4.85;;;2.95;;
36291;SDS011;22327;51.208;6.418;2023-10-08T07:45:51;6.65;;;3.25;;
36291;SDS011;22327;51.208;6.418;2023-10-08T07:48:54;4.55;;;2.80;;
36291;SDS011;22327;51.208;6.418;2023-10-08T07:51:55;6.40;;;4.38;;
36291;SDS011;22327;51.208;6.418;2023-10-08T07:54:57;26.55;;;18.10;;
36291;SDS011;22327;51.208;6.418;2023-10-08T07:57:58;6.13;;;2.97;;
36291;SDS011;22327;51.208;6.418;2023-10-08T08:01:02;7.53;;;3.72;;
36291;SDS011;22327;51.208;6.418;2023-10-08T08:04:06;40.58;;;27.88;;
36291;SDS011;22327;51.208;6.418;2023-10-08T08:07:10;31.98;;;21.45;;
36291;SDS011;22327;51.208;6.418;2023-10-08T08:10:15;6.63;;;3.58;;
36291;SDS011;22327;51.208;6.418;2023-10-08T08:13:18;7.78;;;3.85;;
36291;SDS011;22327;51.208;6.418;2023-10-08T08:16:20;8.55;;;6.45;;
36291;SDS011;22327;51.208;6.418;2023-10-08T08:19:20;16.42;;;11.18;;
36291;SDS011;22327;51.208;6.418;2023-10-08T08:22:24;12.35;;;5.40;;
36291;SDS011;22327;51.208;6.418;2023-10-08T08:25:31;10.45;;;7.18;;
36291;SDS011;22327;51.208;6.418;2023-10-08T08:28:34;9.85;;;4.22;;
36291;SDS011;22327;51.208;6.418;2023-10-08T08:31:35;7.68;;;4.25;;
36291;SDS011;22327;51.208;6.418;2023-10-08T08:34:36;10.48;;;3.95;;
36291;SDS011;22327;51.208;6.418;2023-10-08T08:37:38;12.43;;;5.78;;
36291;SDS011;22327;51.208;6.418;2023-10-08T08:40:39;5.63;;;3.70;;
36291;SDS011;22327;51.208;6.418;2023-10-08T08:43:40;8.52;;;4.47;;
36291;SDS011;22327;51.208;6.418;2023-10-08T08:46:44;10.10;;;6.85;;
36291;SDS011;22327;51.208;6.418;2023-10-08T08:49:47;8.70;;;4.10;;
36291;SDS011;22327;51.208;6.418;2023-10-08T08:52:48;19.30;;;11.20;;
36291;SDS011;22327;51.208;6.418;2023-10-08T08:55:49;18.08;;;9.18;;
36291;SDS011;22327;51.208;6.418;2023-10-08T08:58:52;7.07;;;3.97;;
36291;SDS011;22327;51.208;6.418;2023-10-08T09:01:53;9.88;;;5.05;;
36291;SDS011;22327;51.208;6.418;2023-10-08T09:04:54;11.82;;;6.35;;
36291;SDS011;22327;51.208;6.418;2023-10-08T09:07:59;9.07;;;5.72;;
36291;SDS011;22327;51.208;6.418;2023-10-08T09:11:06;10.13;;;5.72;;
36291;SDS011;22327;51.208;6.418;2023-10-08T09:14:08;11.30;;;5.00;;
36291;SDS011;22327;51.208;6.418;2023-10-08T09:17:10;12.23;;;5.53;;
36291;SDS011;22327;51.208;6.418;2023-10-08T09:20:11;8.32;;;4.85;;
36291;SDS011;22327;51.208;6.418;2023-10-08T09:23:13;8.65;;;5.13;;
36291;SDS011;22327;51.208;6.418;2023-10-08T09:26:17;9.50;;;5.30;;
36291;SDS011;22327;51.208;6.418;2023-10-08T09:29:22;11.95;;;5.47;;
36291;SDS011;22327;51.208;6.418;2023-10-08T09:32:22;11.23;;;5.18;;
36291;SDS011;22327;51.208;6.418;2023-10-08T09:35:23;10.45;;;6.32;;
36291;SDS011;22327;51.208;6.418;2023-10-08T09:38:25;11.80;;;6.35;;
36291;SDS011;22327;51.208;6.418;2023-10-08T09:41:30;11.98;;;5.75;;
36291;SDS011;22327;51.208;6.418;2023-10-08T09:44:32;13.38;;;5.97;;
36291;SDS011;22327;51.208;6.418;2023-10-08T09:47:33;13.93;;;6.38;;
36291;SDS011;22327;51.208;6.418;2023-10-08T09:50:39;14.82;;;6.07;;
36291;SDS011;22327;51.208;6.418;2023-10-08T09:53:43;12.05;;;6.30;;
36291;SDS011;22327;51.208;6.418;2023-10-08T09:57:10;13.82;;;6.47;;
36291;SDS011;22327;51.208;6.418;2023-10-08T10:00:11;15.20;;;6.93;;
36291;SDS011;22327;51.208;6.418;2023-10-08T10:03:18;13.35;;;7.45;;
36291;SDS011;22327;51.208;6.418;2023-10-08T10:06:20;12.63;;;6.93;;
36291;SDS011;22327;51.208;6.418;2023-10-08T10:09:23;14.70;;;7.28;;
36291;SDS011;22327;51.208;6.418;2023-10-08T10:12:25;13.38;;;6.80;;
36291;SDS011;22327;51.208;6.418;2023-10-08T10:15:26;19.20;;;6.53;;
36291;SDS011;22327;51.208;6.418;2023-10-08T10:18:30;13.35;;;7.13;;
36291;SDS011;22327;51.208;6.418;2023-10-08T10:21:33;12.33;;;6.30;;
36291;SDS011;22327;51.208;6.418;2023-10-08T10:24:35;13.40;;;6.65;;
36291;SDS011;22327;51.208;6.418;2023-10-08T10:27:37;14.45;;;7.13;;
36291;SDS011;22327;51.208;6.418;2023-10-08T10:30:39;13.77;;;7.20;;
36291;SDS011;22327;51.208;6.418;2023-10-08T10:33:39;15.27;;;7.72;;
36291;SDS011;22327;51.208;6.418;2023-10-08T10:36:40;18.20;;;7.85;;
36291;SDS011;22327;51.208;6.418;2023-10-08T10:39:41;12.88;;;7.50;;
36291;SDS011;22327;51.208;6.418;2023-10-08T10:42:46;13.65;;;7.68;;
36291;SDS011;22327;51.208;6.418;2023-10-08T10:45:53;15.63;;;7.57;;
36291;SDS011;22327;51.208;6.418;2023-10-08T10:48:56;15.13;;;6.97;;
36291;SDS011;22327;51.208;6.418;2023-10-08T10:52:07;12.02;;;7.43;;
36291;SDS011;22327;51.208;6.418;2023-10-08T10:55:13;14.23;;;7.00;;
36291;SDS011;22327;51.208;6.418;2023-10-08T10:58:14;16.92;;;7.20;;
36291;SDS011;22327;51.208;6.418;2023-10-08T11:01:15;15.30;;;7.50;;
36291;SDS011;22327;51.208;6.418;2023-10-08T11:04:25;13.40;;;7.10;;
36291;SDS011;22327;51.208;6.418;2023-10-08T11:07:28;13.80;;;6.90;;
36291;SDS011;22327;51.208;6.418;2023-10-08T11:10:30;12.57;;;6.93;;
36291;SDS011;22327;51.208;6.418;2023-10-08T11:13:32;14.90;;;7.25;;
36291;SDS011;22327;51.208;6.418;2023-10-08T11:16:37;14.55;;;6.68;;
36291;SDS011;22327;51.208;6.418;2023-10-08T11:19:39;12.63;;;6.93;;
36291;SDS011;22327;51.208;6.418;2023-10-08T11:22:42;15.97;;;8.00;;
36291;SDS011;22327;51.208;6.418;2023-10-08T11:25:58;17.75;;;7.97;;
36291;SDS011;22327;51.208;6.418;2023-10-08T11:29:03;14.48;;;7.47;;
36291;SDS011;22327;51.208;6.418;2023-10-08T11:32:04;14.57;;;7.88;;
36291;SDS011;22327;51.208;6.418;2023-10-08T11:35:07;13.23;;;7.63;;
36291;SDS011;22327;51.208;6.418;2023-10-08T11:38:15;14.63;;;8.20;;
36291;SDS011;22327;51.208;6.418;2023-10-08T11:41:22;12.65;;;7.50;;
36291;SDS011;22327;51.208;6.418;2023-10-08T11:44:22;20.42;;;7.80;;
36291;SDS011;22327;51.208;6.418;2023-10-08T11:47:23;15.50;;;7.63;;
36291;SDS011;22327;51.208;6.418;2023-10-08T11:50:28;14.45;;;7.57;;
36291;SDS011;22327;51.208;6.418;2023-10-08T11:53:31;18.92;;;7.90;;
36291;SDS011;22327;51.208;6.418;2023-10-08T11:56:37;15.18;;;7.50;;
36291;SDS011;22327;51.208;6.418;2023-10-08T11:59:38;15.35;;;7.93;;
36291;SDS011;22327;51.208;6.418;2023-10-08T12:02:39;19.30;;;8.30;;
36291;SDS011;22327;51.208;6.418;2023-10-08T12:05:44;16.30;;;7.80;;
36291;SDS011;22327;51.208;6.418;2023-10-08T12:08:47;15.77;;;8.30;;
36291;SDS011;22327;51.208;6.418;2023-10-08T12:11:53;15.73;;;7.72;;
36291;SDS011;22327;51.208;6.418;2023-10-08T12:14:56;15.63;;;7.73;;
36291;SDS011;22327;51.208;6.418;2023-10-08T12:17:56;11.45;;;7.10;;
36291;SDS011;22327;51.208;6.418;2023-10-08T12:21:15;15.57;;;8.18;;
36291;SDS011;22327;51.208;6.418;2023-10-08T12:24:17;15.00;;;7.97;;
36291;SDS011;22327;51.208;6.418;2023-10-08T12:27:19;13.63;;;7.25;;
36291;SDS011;22327;51.208;6.418;2023-10-08T12:30:21;15.35;;;8.00;;
36291;SDS011;22327;51.208;6.418;2023-10-08T12:33:30;12.73;;;6.93;;
36291;SDS011;22327;51.208;6.418;2023-10-08T12:36:31;14.15;;;7.38;;
36291;SDS011;22327;51.208;6.418;2023-10-08T12:39:36;18.55;;;7.15;;
36291;SDS011;22327;51.208;6.418;2023-10-08T12:42:52;15.52;;;7.43;;
36291;SDS011;22327;51.208;6.418;2023-10-08T12:45:54;14.35;;;8.13;;
36291;SDS011;22327;51.208;6.418;2023-10-08T12:48:56;17.13;;;8.65;;
36291;SDS011;22327;51.208;6.418;2023-10-08T12:51:58;13.45;;;7.70;;
36291;SDS011;22327;51.208;6.418;2023-10-08T12:55:02;15.43;;;8.32;;
36291;SDS011;22327;51.208;6.418;2023-10-08T12:58:06;14.90;;;7.53;;
36291;SDS011;22327;51.208;6.418;2023-10-08T13:04:11;15.00;;;7.90;;
36291;SDS011;22327;51.208;6.418;2023-10-08T13:07:15;16.90;;;8.88;;
36291;SDS011;22327;51.208;6.418;2023-10-08T13:10:22;18.55;;;7.82;;
36291;SDS011;22327;51.208;6.418;2023-10-08T13:13:23;18.20;;;9.05;;
36291;SDS011;22327;51.208;6.418;2023-10-08T13:16:26;15.73;;;8.23;;
36291;SDS011;22327;51.208;6.418;2023-10-08T13:19:37;14.93;;;7.65;;
36291;SDS011;22327;51.208;6.418;2023-10-08T13:22:40;17.00;;;8.65;;
36291;SDS011;22327;51.208;6.418;2023-10-08T13:25:43;20.33;;;8.20;;
36291;SDS011;22327;51.208;6.418;2023-10-08T13:28:46;16.83;;;8.40;;
36291;SDS011;22327;51.208;6.418;2023-10-08T13:31:47;12.88;;;7.88;;
36291;SDS011;22327;51.208;6.418;2023-10-08T13:34:47;15.48;;;7.95;;
36291;SDS011;22327;51.208;6.418;2023-10-08T13:37:48;14.15;;;8.07;;
36291;SDS011;22327;51.208;6.418;2023-10-08T13:40:49;16.23;;;8.60;;
36291;SDS011;22327;51.208;6.418;2023-10-08T13:44:08;17.40;;;8.77;;
36291;SDS011;22327;51.208;6.418;2023-10-08T13:47:08;16.27;;;8.25;;
36291;SDS011;22327;51.208;6.418;2023-10-08T13:50:14;16.25;;;8.25;;
36291;SDS011;22327;51.208;6.418;2023-10-08T13:53:18;20.55;;;8.75;;
36291;SDS011;22327;51.208;6.418;2023-10-08T13:56:20;16.33;;;8.23;;
36291;SDS011;22327;51.208;6.418;2023-10-08T13:59:26;13.10;;;7.85;;
36291;SDS011;22327;51.208;6.418;2023-10-08T14:02:26;16.30;;;8.40;;
36291;SDS011;22327;51.208;6.418;2023-10-08T14:05:30;17.48;;;8.63;;
36291;SDS011;22327;51.208;6.418;2023-10-08T14:08:31;16.10;;;8.38;;
36291;SDS011;22327;51.208;6.418;2023-10-08T14:11:32;16.90;;;8.68;;
36291;SDS011;22327;51.208;6.418;2023-10-08T14:14:33;15.15;;;8.13;;
36291;SDS011;22327;51.208;6.418;2023-10-08T14:17:34;16.63;;;8.52;;
36291;SDS011;22327;51.208;6.418;2023-10-08T14:20:43;20.52;;;7.82;;
36291;SDS011;22327;51.208;6.418;2023-10-08T14:23:46;21.42;;;8.85;;
36291;SDS011;22327;51.208;6.418;2023-10-08T14:26:47;13.93;;;7.70;;
36291;SDS011;22327;51.208;6.418;2023-10-08T14:29:57;17.63;;;8.77;;
36291;SDS011;22327;51.208;6.418;2023-10-08T14:33:01;15.68;;;7.50;;
36291;SDS011;22327;51.208;6.418;2023-10-08T14:36:03;13.75;;;7.47;;
36291;SDS011;22327;51.208;6.418;2023-10-08T14:39:22;16.48;;;7.90;;
36291;SDS011;22327;51.208;6.418;2023-10-08T14:42:41;12.35;;;7.35;;
36291;SDS011;22327;51.208;6.418;2023-10-08T14:46:02;18.25;;;8.85;;
36291;SDS011;22327;51.208;6.418;2023-10-08T14:49:09;14.68;;;7.43;;
36291;SDS011;22327;51.208;6.418;2023-10-08T14:52:10;17.42;;;8.02;;
36291;SDS011;22327;51.208;6.418;2023-10-08T14:55:11;12.25;;;7.90;;
36291;SDS011;22327;51.208;6.418;2023-10-08T14:58:12;18.80;;;9.25;;
36291;SDS011;22327;51.208;6.418;2023-10-08T15:01:14;16.92;;;8.80;;
36291;SDS011;22327;51.208;6.418;2023-10-08T15:04:14;16.60;;;8.82;;
36291;SDS011;22327;51.208;6.418;2023-10-08T15:07:16;14.73;;;8.45;;
36291;SDS011;22327;51.208;6.418;2023-10-08T15:10:18;16.77;;;8.43;;
36291;SDS011;22327;51.208;6.418;2023-10-08T15:13:19;16.40;;;8.05;;
36291;SDS011;22327;51.208;6.418;2023-10-08T15:16:19;18.60;;;8.25;;
36291;SDS011;22327;51.208;6.418;2023-10-08T15:19:22;14.98;;;8.23;;
36291;SDS011;22327;51.208;6.418;2023-10-08T15:22:23;14.18;;;7.45;;
36291;SDS011;22327;51.208;6.418;2023-10-08T15:25:24;16.27;;;8.75;;
36291;SDS011;22327;51.208;6.418;2023-10-08T15:28:24;19.98;;;9.30;;
36291;SDS011;22327;51.208;6.418;2023-10-08T15:31:26;24.13;;;10.40;;
36291;SDS011;22327;51.208;6.418;2023-10-08T15:34:26;16.52;;;8.90;;
36291;SDS011;22327;51.208;6.418;2023-10-08T15:37:27;19.77;;;9.90;;
36291;SDS011;22327;51.208;6.418;2023-10-08T15:40:28;19.67;;;10.43;;
36291;SDS011;22327;51.208;6.418;2023-10-08T15:43:30;17.85;;;9.32;;
36291;SDS011;22327;51.208;6.418;2023-10-08T15:46:31;25.38;;;10.05;;
36291;SDS011;22327;51.208;6.418;2023-10-08T15:49:34;19.58;;;10.70;;
36291;SDS011;22327;51.208;6.418;2023-10-08T15:52:34;25.38;;;11.00;;
36291;SDS011;22327;51.208;6.418;2023-10-08T15:55:35;31.02;;;11.98;;
36291;SDS011;22327;51.208;6.418;2023-10-08T15:58:36;18.38;;;10.68;;
36291;SDS011;22327;51.208;6.418;2023-10-08T16:01:36;21.50;;;10.48;;
36291;SDS011;22327;51.208;6.418;2023-10-08T16:04:37;22.45;;;10.55;;
36291;SDS011;22327;51.208;6.418;2023-10-08T16:07:38;22.08;;;9.88;;
36291;SDS011;22327;51.208;6.418;2023-10-08T16:10:39;18.20;;;10.00;;
36291;SDS011;22327;51.208;6.418;2023-10-08T16:13:39;20.75;;;9.93;;
36291;SDS011;22327;51.208;6.418;2023-10-08T16:16:43;22.35;;;10.32;;
36291;SDS011;22327;51.208;6.418;2023-10-08T16:19:47;21.85;;;10.73;;
36291;SDS011;22327;51.208;6.418;2023-10-08T16:22:47;20.02;;;9.38;;
36291;SDS011;22327;51.208;6.418;2023-10-08T16:25:50;19.60;;;9.85;;
36291;SDS011;22327;51.208;6.418;2023-10-08T16:28:53;22.52;;;10.32;;
36291;SDS011;22327;51.208;6.418;2023-10-08T16:31:54;19.33;;;9.00;;
36291;SDS011;22327;51.208;6.418;2023-10-08T16:34:54;18.17;;;9.27;;
36291;SDS011;22327;51.208;6.418;2023-10-08T16:37:56;17.23;;;9.32;;
36291;SDS011;22327;51.208;6.418;2023-10-08T16:40:56;13.55;;;8.25;;
36291;SDS011;22327;51.208;6.418;2023-10-08T16:43:57;15.05;;;9.35;;
36291;SDS011;22327;51.208;6.418;2023-10-08T16:46:57;23.08;;;9.57;;
36291;SDS011;22327;51.208;6.418;2023-10-08T16:49:58;19.58;;;8.60;;
36291;SDS011;22327;51.208;6.418;2023-10-08T16:52:59;16.90;;;8.57;;
36291;SDS011;22327;51.208;6.418;2023-10-08T16:56:00;18.60;;;9.48;;
36291;SDS011;22327;51.208;6.418;2023-10-08T16:59:00;18.15;;;9.50;;
36291;SDS011;22327;51.208;6.418;2023-10-08T17:02:03;15.85;;;8.40;;
36291;SDS011;22327;51.208;6.418;2023-10-08T17:05:04;18.70;;;8.38;;
36291;SDS011;22327;51.208;6.418;2023-10-08T17:08:04;15.07;;;8.43;;
36291;SDS011;22327;51.208;6.418;2023-10-08T17:11:05;15.63;;;9.10;;
36291;SDS011;22327;51.208;6.418;2023-10-08T17:14:06;15.70;;;8.68;;
36291;SDS011;22327;51.208;6.418;2023-10-08T17:17:06;14.98;;;8.70;;
36291;SDS011;22327;51.208;6.418;2023-10-08T17:20:07;14.30;;;7.82;;
36291;SDS011;22327;51.208;6.418;2023-10-08T17:23:10;18.42;;;8.25;;
36291;SDS011;22327;51.208;6.418;2023-10-08T17:26:11;16.42;;;8.45;;
36291;SDS011;22327;51.208;6.418;2023-10-08T17:29:12;17.83;;;7.85;;
36291;SDS011;22327;51.208;6.418;2023-10-08T17:32:12;13.10;;;7.60;;
36291;SDS011;22327;51.208;6.418;2023-10-08T17:35:13;15.98;;;8.20;;
36291;SDS011;22327;51.208;6.418;2023-10-08T17:38:16;17.52;;;8.50;;
36291;SDS011;22327;51.208;6.418;2023-10-08T17:41:17;15.48;;;7.50;;
36291;SDS011;22327;51.208;6.418;2023-10-08T17:44:18;15.77;;;8.68;;
36291;SDS011;22327;51.208;6.418;2023-10-08T17:47:19;18.80;;;8.60;;
36291;SDS011;22327;51.208;6.418;2023-10-08T17:50:20;16.05;;;8.40;;
36291;SDS011;22327;51.208;6.418;2023-10-08T17:53:21;17.45;;;8.73;;
36291;SDS011;22327;51.208;6.418;2023-10-08T17:56:21;17.70;;;9.02;;
36291;SDS011;22327;51.208;6.418;2023-10-08T17:59:22;16.83;;;9.65;;
36291;SDS011;22327;51.208;6.418;2023-10-08T18:02:22;18.75;;;8.23;;
36291;SDS011;22327;51.208;6.418;2023-10-08T18:05:23;15.60;;;8.27;;
36291;SDS011;22327;51.208;6.418;2023-10-08T18:08:27;16.25;;;8.50;;
36291;SDS011;22327;51.208;6.418;2023-10-08T18:11:29;15.80;;;9.25;;
36291;SDS011;22327;51.208;6.418;2023-10-08T18:14:29;17.02;;;7.93;;
36291;SDS011;22327;51.208;6.418;2023-10-08T18:17:30;14.25;;;8.18;;
36291;SDS011;22327;51.208;6.418;2023-10-08T18:20:30;17.83;;;9.23;;
36291;SDS011;22327;51.208;6.418;2023-10-08T18:23:36;19.42;;;8.65;;
36291;SDS011;22327;51.208;6.418;2023-10-08T18:26:39;23.02;;;8.95;;